Terminal Aerodrome Forecast
Issued by NWS

Home | Current Version | Previous Version | Graphics & Text | Print | Product List | Glossary On
Versions: 1 2 3 4 5 6 7 8 9 10 11 12 13 14 15 16 17 18 19 20 21 22
000
FTUS43 KEAX 300520
TAFSTJ
TAF
KSTJ 300520Z 3006/3106 34003KT 6SM BR SCT025
     FM300730 03002KT 3SM BR SCT005
      TEMPO 3009/3013 1/2SM FG BKN002
     FM301400 05006KT P6SM BKN015
     FM301800 13007KT P6SM SCT025 BKN035=

USA.gov is the U.S. government's official web portal to all federal, state and local government web resources and services.